Time;durP1;ratioP1;P1;durP2;ratioP2;P2;SDS_P1;SDS_P2;PMS_P1;PMS_P2;Temp;Humidity;BMP_temperature;BMP_pressure;BME280_temperature;BME280_humidity;BME280_pressure;Samples;Min_cycle;Max_cycle;Signal;HPM_P1;HPM_P2
2022/05/02 00:00:08;;;;;;;25.13;17.05;;;;;;;7.28;76.59;102042.00;5117790;28;20024;-61
2022/05/02 00:02:34;;;;;;;27.40;17.55;;;;;;;7.26;77.76;102042.84;5114499;28;20127;-62
2022/05/02 00:05:00;;;;;;;23.70;16.67;;;;;;;7.33;76.73;102037.75;5118477;28;20027;-62
2022/05/02 00:07:25;;;;;;;22.30;17.02;;;;;;;7.23;76.51;102032.38;5118060;28;20035;-62
2022/05/02 00:09:51;;;;;;;22.05;16.55;;;;;;;7.16;77.06;102025.28;5117964;28;20036;-62
2022/05/02 00:12:17;;;;;;;24.92;17.85;;;;;;;7.13;77.89;102020.00;5117889;28;20161;-62
2022/05/02 00:14:42;;;;;;;27.08;17.63;;;;;;;7.19;77.37;102027.94;5117945;28;20024;-61
2022/05/02 00:17:07;;;;;;;23.77;17.38;;;;;;;7.08;77.25;102024.25;5117435;28;20123;-61
2022/05/02 00:19:33;;;;;;;27.63;18.23;;;;;;;7.03;77.90;102023.28;5114235;28;20035;-62
2022/05/02 00:21:58;;;;;;;23.58;17.13;;;;;;;7.03;78.28;102025.88;5118012;28;20043;-61
2022/05/02 00:24:24;;;;;;;23.77;17.83;;;;;;;7.06;78.71;102024.22;5117562;28;20114;-61
2022/05/02 00:26:49;;;;;;;25.40;17.92;;;;;;;7.12;78.41;102019.13;5117278;28;20066;-61
2022/05/02 00:29:15;;;;;;;24.20;17.65;;;;;;;7.19;78.26;102018.41;5117059;28;20031;-62
2022/05/02 00:31:40;;;;;;;25.63;17.75;;;;;;;7.24;78.04;102013.28;5117421;28;20027;-62
2022/05/02 00:34:05;;;;;;;22.98;17.13;;;;;;;7.15;77.90;102008.78;5117866;28;20066;-63
2022/05/02 00:36:31;;;;;;;21.83;17.27;;;;;;;7.21;77.59;102008.91;5117398;28;20073;-61
2022/05/02 00:38:56;;;;;;;22.50;17.20;;;;;;;7.14;78.43;102009.63;5117132;28;20027;-61
2022/05/02 00:41:22;;;;;;;25.08;18.05;;;;;;;7.16;77.78;102007.94;5117229;28;20036;-62
2022/05/02 00:43:47;;;;;;;22.40;17.77;;;;;;;7.18;77.89;102008.84;5117356;28;20081;-61
2022/05/02 00:46:18;;;;;;;25.23;17.88;;;;;;;7.24;77.81;102005.50;5099052;28;20081;-62
2022/05/02 00:48:43;;;;;;;23.55;17.38;;;;;;;7.19;77.76;101999.31;5117235;28;20027;-61
2022/05/02 00:51:08;;;;;;;26.30;17.48;;;;;;;7.14;78.04;101996.59;5117030;28;20494;-62
2022/05/02 00:53:34;;;;;;;22.67;17.30;;;;;;;7.16;77.84;101991.44;5117065;28;20042;-62
2022/05/02 00:56:00;;;;;;;23.70;17.85;;;;;;;7.07;78.04;101996.47;5117053;28;20115;-62
2022/05/02 00:58:26;;;;;;;26.73;18.13;;;;;;;7.05;78.34;102003.38;5116908;28;20449;-62
2022/05/02 01:00:51;;;;;;;26.83;18.00;;;;;;;6.99;79.19;102006.72;5116918;28;20053;-61
2022/05/02 01:03:16;;;;;;;27.75;19.27;;;;;;;6.94;79.07;101996.22;5116692;28;20117;-62
2022/05/02 01:08:30;;;;;;;26.25;17.80;;;;;;;6.78;78.93;101985.47;5117029;28;20058;-62
2022/05/02 01:10:58;;;;;;;27.75;19.25;;;;;;;6.71;79.58;102002.69;5116755;28;20043;-63
2022/05/02 01:13:34;;;;;;;23.55;18.83;;;;;;;6.60;79.51;101999.84;5116977;28;20114;-62
2022/05/02 01:15:59;;;;;;;25.95;19.02;;;;;;;6.46;80.54;101993.47;5116220;28;20038;-61
2022/05/02 01:18:24;;;;;;;25.10;18.35;;;;;;;6.49;80.69;102003.06;5116518;28;20036;-62
2022/05/02 01:20:50;;;;;;;25.20;17.73;;;;;;;6.50;80.71;101987.50;5116487;28;20023;-61
2022/05/02 01:23:15;;;;;;;28.80;19.50;;;;;;;6.56;80.54;101998.06;5116458;28;20126;-61
2022/05/02 01:25:40;;;;;;;26.80;20.17;;;;;;;6.59;80.70;102000.69;5116175;28;20062;-62
2022/05/02 01:28:06;;;;;;;25.38;19.27;;;;;;;6.60;80.44;101992.03;5116144;28;20392;-61
2022/05/02 01:30:32;;;;;;;27.48;18.85;;;;;;;6.59;80.24;101998.09;5112990;28;20092;-62
2022/05/02 01:32:57;;;;;;;26.48;19.60;;;;;;;6.56;80.69;101989.38;5116365;28;20031;-62
2022/05/02 01:35:23;;;;;;;25.95;18.85;;;;;;;6.55;80.51;101995.41;5116245;28;20343;-62
2022/05/02 01:37:48;;;;;;;25.10;19.42;;;;;;;6.57;80.44;101991.13;5116294;28;20027;-61
2022/05/02 01:40:13;;;;;;;27.20;19.75;;;;;;;6.50;80.08;101992.72;5115380;28;20448;-63
2022/05/02 01:42:38;;;;;;;25.65;19.77;;;;;;;6.37;81.09;101980.28;5116430;28;20051;-62
2022/05/02 01:45:04;;;;;;;26.40;19.17;;;;;;;6.24;80.90;101962.66;5115933;28;20326;-62
2022/05/02 01:47:30;;;;;;;26.33;19.58;;;;;;;6.33;81.48;101986.25;5116034;28;20069;-63
2022/05/02 01:49:55;;;;;;;24.75;18.90;;;;;;;6.16;81.21;101964.22;5116108;28;20028;-61
2022/05/02 01:52:20;;;;;;;26.77;19.65;;;;;;;6.23;81.47;101985.16;5116039;28;20027;-63
2022/05/02 01:54:45;;;;;;;27.52;19.10;;;;;;;6.29;81.01;101987.03;5115970;28;20031;-62
2022/05/02 01:57:11;;;;;;;27.08;20.17;;;;;;;6.27;81.40;101986.13;5115943;28;20019;-62
2022/05/02 01:59:36;;;;;;;27.50;19.17;;;;;;;6.19;81.63;101964.28;5115730;28;20093;-61
2022/05/02 02:02:01;;;;;;;27.92;19.92;;;;;;;6.31;81.56;101980.16;5115753;28;20442;-61
2022/05/02 02:07:10;;;;;;;27.38;19.63;;;;;;;6.28;81.41;101972.28;5115575;28;20042;-62
2022/05/02 02:09:35;;;;;;;26.30;19.67;;;;;;;6.35;81.37;101981.97;5115652;28;20035;-61
2022/05/02 02:12:01;;;;;;;25.42;18.80;;;;;;;6.33;81.12;101977.59;5115734;28;20031;-61
2022/05/02 02:14:26;;;;;;;25.70;19.83;;;;;;;6.28;81.38;101973.16;5115692;28;20492;-61
2022/05/02 02:16:52;;;;;;;26.17;19.73;;;;;;;6.21;81.16;101975.59;5115478;28;20050;-61
2022/05/02 02:19:17;;;;;;;26.17;19.52;;;;;;;6.07;81.42;101972.66;5115530;28;20027;-62
2022/05/02 02:21:42;;;;;;;27.98;19.65;;;;;;;6.05;81.92;101969.19;5115556;28;20114;-62
2022/05/02 02:24:08;;;;;;;28.80;19.95;;;;;;;6.08;81.82;101973.53;5115562;28;20040;-61
2022/05/02 02:26:33;;;;;;;25.38;19.35;;;;;;;6.17;81.85;101977.25;5115193;28;20055;-61
2022/05/02 02:28:59;;;;;;;28.73;20.60;;;;;;;6.10;81.83;101974.47;5115403;28;20039;-62
2022/05/02 02:31:24;;;;;;;27.73;19.90;;;;;;;6.04;81.89;101974.34;5115113;28;20340;-62
2022/05/02 02:33:49;;;;;;;26.70;20.30;;;;;;;6.07;82.37;101970.06;5115548;28;20362;-61
2022/05/02 02:36:14;;;;;;;28.65;19.42;;;;;;;6.04;82.25;101967.44;5115506;28;20027;-62
2022/05/02 02:38:40;;;;;;;29.23;20.75;;;;;;;6.06;82.43;101970.06;5115386;28;20028;-62
2022/05/02 02:41:05;;;;;;;31.70;21.17;;;;;;;6.05;82.47;101973.50;5114768;28;20031;-62
2022/05/02 02:43:30;;;;;;;26.73;21.08;;;;;;;5.94;81.94;101966.31;5115373;28;20027;-61
2022/05/02 02:45:55;;;;;;;30.17;21.05;;;;;;;5.80;82.98;101967.69;5115602;28;20046;-61
2022/05/02 02:48:21;;;;;;;29.92;21.05;;;;;;;5.79;82.83;101975.44;5097147;28;20480;-62
2022/05/02 02:50:46;;;;;;;30.88;20.33;;;;;;;5.70;83.37;101968.31;5117318;28;20028;-61
2022/05/02 02:53:11;;;;;;;28.52;21.63;;;;;;;5.62;83.64;101967.22;5119543;28;20174;-63
2022/05/02 02:55:36;;;;;;;31.27;21.70;;;;;;;5.56;84.38;101959.28;5119021;28;20335;-61
2022/05/02 02:58:02;;;;;;;33.05;22.45;;;;;;;5.44;84.39;101951.19;5119248;28;20030;-62
2022/05/02 03:00:28;;;;;;;31.27;22.30;;;;;;;5.46;84.52;101954.72;5119265;28;20020;-63
2022/05/02 03:02:54;;;;;;;33.42;22.23;;;;;;;5.44;84.75;101943.41;5119212;28;20335;-61
2022/05/02 03:08:04;;;;;;;29.27;22.10;;;;;;;5.47;84.80;101951.28;5118500;28;20092;-62
2022/05/02 03:10:29;;;;;;;28.25;21.00;;;;;;;5.58;84.99;101945.50;5118947;28;20035;-62
2022/05/02 03:12:57;;;;;;;27.77;21.23;;;;;;;5.58;84.48;101955.88;5118763;28;20031;-61
2022/05/02 03:15:22;;;;;;;34.10;22.33;;;;;;;5.55;84.17;101947.13;5119145;28;20035;-62
2022/05/02 03:17:47;;;;;;;31.55;22.05;;;;;;;5.60;84.22;101946.41;5119126;28;20359;-61
2022/05/02 03:20:13;;;;;;;30.20;21.58;;;;;;;5.53;84.15;101947.13;5118581;28;20031;-62
2022/05/02 03:22:38;;;;;;;28.85;20.52;;;;;;;5.56;83.53;101941.09;5118676;28;20092;-62
2022/05/02 03:25:04;;;;;;;29.42;20.80;;;;;;;5.62;83.84;101954.25;5118805;28;20038;-61
2022/05/02 03:27:29;;;;;;;28.42;20.60;;;;;;;5.55;84.48;101950.59;5118885;28;20398;-62
2022/05/02 03:29:54;;;;;;;28.08;20.88;;;;;;;5.56;84.14;101948.91;5118734;28;20059;-62
2022/05/02 03:32:20;;;;;;;28.38;20.73;;;;;;;5.53;83.76;101947.13;5118659;28;20023;-62
2022/05/02 03:34:45;;;;;;;31.17;21.23;;;;;;;5.50;84.54;101934.06;5118713;28;20107;-61
2022/05/02 03:37:11;;;;;;;28.70;20.77;;;;;;;5.50;84.27;101947.03;5118678;28;20050;-61
2022/05/02 03:39:36;;;;;;;29.40;20.85;;;;;;;5.47;84.52;101940.88;5118674;28;20395;-62
2022/05/02 03:42:01;;;;;;;28.10;21.42;;;;;;;5.45;84.40;101937.38;5114972;28;20036;-63
2022/05/02 03:44:26;;;;;;;31.40;20.73;;;;;;;5.43;84.35;101939.06;5118668;28;20020;-61
2022/05/02 03:46:52;;;;;;;31.13;20.67;;;;;;;5.45;84.74;101934.78;5118316;28;20368;-62
2022/05/02 03:49:17;;;;;;;28.85;20.80;;;;;;;5.49;84.29;101940.09;5118180;28;20027;-61
2022/05/02 03:51:42;;;;;;;30.52;21.38;;;;;;;5.46;84.51;101942.59;5118645;28;20031;-62
2022/05/02 03:54:07;;;;;;;27.05;20.75;;;;;;;5.36;84.64;101924.19;5118074;28;20437;-61
2022/05/02 03:56:33;;;;;;;28.92;20.15;;;;;;;5.42;84.42;101945.09;5117957;28;20023;-62
2022/05/02 03:58:58;;;;;;;28.48;20.45;;;;;;;5.43;84.85;101946.84;5118478;28;20165;-62
2022/05/02 04:01:23;;;;;;;31.63;21.67;;;;;;;5.40;84.48;101944.16;5117791;28;20027;-63
2022/05/02 04:03:49;;;;;;;33.22;21.67;;;;;;;5.41;84.75;101948.50;5117482;28;20080;-63
2022/05/02 04:06:15;;;;;;;32.13;21.42;;;;;;;5.36;84.34;101940.63;5117807;28;20032;-61
2022/05/02 04:08:40;;;;;;;29.73;20.85;;;;;;;5.38;84.92;101945.84;5117861;28;20063;-62
2022/05/02 04:11:05;;;;;;;30.70;21.63;;;;;;;5.35;84.97;101949.25;5117757;28;20393;-62
2022/05/02 04:13:31;;;;;;;35.28;22.45;;;;;;;5.32;85.37;101937.91;5118086;28;20328;-62
2022/05/02 04:15:56;;;;;;;32.67;21.58;;;;;;;5.33;84.61;101942.28;5117872;28;20039;-61
2022/05/02 04:18:21;;;;;;;29.92;21.42;;;;;;;5.31;84.59;101936.16;5117559;28;20339;-63
2022/05/02 04:20:47;;;;;;;31.77;22.33;;;;;;;5.29;84.69;101924.84;5117782;28;20031;-62
2022/05/02 04:23:12;;;;;;;31.67;22.17;;;;;;;5.29;85.23;101940.44;5117482;28;20035;-60
2022/05/02 04:25:37;;;;;;;36.00;23.13;;;;;;;5.24;84.96;101946.38;5117437;28;20052;-62
2022/05/02 04:28:03;;;;;;;34.10;23.25;;;;;;;5.20;85.95;101951.44;5114096;28;20108;-62
2022/05/02 04:30:28;;;;;;;32.60;23.58;;;;;;;5.22;86.13;101954.94;5117419;28;20031;-62
2022/05/02 04:32:54;;;;;;;34.33;23.63;;;;;;;5.23;86.49;101949.81;5117721;28;20115;-63
2022/05/02 04:35:19;;;;;;;34.72;24.20;;;;;;;5.31;86.05;101950.00;5117372;28;20034;-61
2022/05/02 04:37:44;;;;;;;34.33;24.27;;;;;;;5.25;86.44;101937.75;5118095;28;20554;-62
2022/05/02 04:40:10;;;;;;;34.05;23.98;;;;;;;5.27;86.07;101934.31;5117153;28;20027;-63
2022/05/02 04:42:37;;;;;;;38.22;25.05;;;;;;;5.28;86.96;101946.44;5117122;28;20027;-63
2022/05/02 04:45:04;;;;;;;37.53;25.00;;;;;;;5.31;86.49;101943.94;5117182;28;20342;-63
2022/05/02 04:47:29;;;;;;;33.95;23.42;;;;;;;5.30;86.53;101943.06;5117253;28;20028;-62
2022/05/02 04:49:54;;;;;;;35.22;24.98;;;;;;;5.29;87.17;101930.94;5117093;28;20038;-63
2022/05/02 04:52:19;;;;;;;34.35;24.02;;;;;;;5.41;86.45;101945.91;5117007;28;20024;-64
2022/05/02 04:54:45;;;;;;;35.97;25.25;;;;;;;5.40;86.30;101944.16;5117077;28;20039;-63
2022/05/02 04:57:10;;;;;;;34.17;23.98;;;;;;;5.44;86.72;101943.41;5117065;28;20027;-62
2022/05/02 04:59:35;;;;;;;36.13;24.85;;;;;;;5.51;87.06;101947.94;5116701;28;20070;-64
2022/05/02 05:02:00;;;;;;;40.30;26.50;;;;;;;5.58;86.87;101949.81;5117077;28;20031;-62
2022/05/02 05:04:26;;;;;;;39.60;25.75;;;;;;;5.66;86.96;101957.81;5116471;28;20450;-64
2022/05/02 05:06:51;;;;;;;39.10;26.27;;;;;;;5.72;86.79;101940.63;5116642;28;20035;-62
2022/05/02 05:09:17;;;;;;;35.35;24.95;;;;;;;5.84;87.17;101948.75;5116444;28;20027;-63
2022/05/02 05:11:51;;;;;;;36.15;25.73;;;;;;;5.95;87.18;101943.81;5116693;28;20339;-63
2022/05/02 05:17:43;;;;;;;37.95;26.13;;;;;;;6.25;86.53;101946.22;5116762;28;20050;-62
2022/05/02 05:20:46;;;;;;;41.78;28.45;;;;;;;6.38;85.78;101953.47;5116354;28;20035;-61
2022/05/02 05:23:34;;;;;;;;;;;;;;;6.57;84.40;101950.41;5116499;28;20055;-62
2022/05/02 05:26:26;;;;;;;41.88;27.48;;;;;;;6.77;84.93;101948.16;5116199;28;19968;-62
2022/05/02 05:29:10;;;;;;;39.42;27.90;;;;;;;6.83;84.66;101944.81;5116486;28;20059;-63
2022/05/02 05:31:41;;;;;;;40.92;27.77;;;;;;;6.91;84.77;101951.06;5116608;28;20071;-62
2022/05/02 05:34:53;;;;;;;41.75;29.50;;;;;;;6.94;83.99;101945.91;5116091;28;20124;-63
2022/05/02 05:37:30;;;;;;;42.47;28.77;;;;;;;7.01;84.62;101944.31;5013933;28;20044;-62
2022/05/02 05:40:27;;;;;;;47.90;29.33;;;;;;;7.10;84.04;101953.16;5110731;28;20036;-62
2022/05/02 05:43:02;;;;;;;39.85;28.08;;;;;;;7.15;84.78;101935.88;5115923;28;20403;-63
2022/05/02 05:45:37;;;;;;;40.30;28.58;;;;;;;7.21;84.44;101936.00;5115966;28;20023;-62
2022/05/02 05:48:21;;;;;;;40.55;29.00;;;;;;;7.19;83.87;101923.81;5115987;28;20126;-62
2022/05/02 05:51:13;;;;;;;42.40;29.27;;;;;;;7.18;83.68;101925.53;5115406;28;20050;-60
2022/05/02 05:53:53;;;;;;;43.70;28.83;;;;;;;7.33;83.86;101948.34;5115407;28;20116;-63
2022/05/02 05:56:29;;;;;;;41.25;28.65;;;;;;;7.37;84.50;101951.91;5113725;28;20399;-61
2022/05/02 05:59:28;;;;;;;42.95;28.83;;;;;;;7.38;83.87;101946.72;5115701;28;20030;-63
2022/05/02 06:02:05;;;;;;;43.22;30.08;;;;;;;7.45;84.58;101948.56;5115502;28;20347;-62
2022/05/02 06:04:32;;;;;;;41.83;29.85;;;;;;;7.53;84.37;101952.19;5115550;28;20074;-62
2022/05/02 06:06:58;;;;;;;40.92;29.15;;;;;;;7.61;84.09;101947.13;5115939;28;20027;-62
2022/05/02 06:09:27;;;;;;;39.47;28.33;;;;;;;7.64;84.02;101949.75;5115410;28;20047;-63
2022/05/02 06:11:57;;;;;;;39.63;28.13;;;;;;;7.65;83.97;101939.34;5115658;28;20027;-62
2022/05/02 06:14:26;;;;;;;40.15;28.85;;;;;;;7.82;83.64;101957.84;5115320;28;20059;-62
2022/05/02 06:19:39;;;;;;;41.83;28.02;;;;;;;8.01;82.71;101953.81;5115322;28;20130;-63
2022/05/02 06:22:05;;;;;;;39.70;27.30;;;;;;;8.12;82.71;101953.97;5114892;28;20458;-62
2022/05/02 06:24:32;;;;;;;40.92;27.10;;;;;;;8.21;82.49;101959.31;5115167;28;20028;-62
2022/05/02 06:26:59;;;;;;;38.25;26.55;;;;;;;8.28;81.90;101954.22;5115610;28;20047;-63
2022/05/02 06:29:25;;;;;;;36.55;26.45;;;;;;;8.33;81.39;101944.72;5115460;28;20042;-62
2022/05/02 06:31:54;;;;;;;34.70;25.33;;;;;;;8.44;80.86;101950.09;5115284;28;20028;-62
2022/05/02 06:34:26;;;;;;;37.70;25.67;;;;;;;8.49;81.07;101947.53;5111890;28;20043;-62
2022/05/02 06:37:16;;;;;;;36.28;25.80;;;;;;;8.55;81.02;101951.13;5115318;28;20099;-64
2022/05/02 06:39:54;;;;;;;36.03;25.88;;;;;;;8.68;80.56;101955.63;5100050;28;20044;-62
2022/05/02 06:42:38;;;;;;;33.03;25.30;;;;;;;8.78;80.10;101959.22;5115496;28;20024;-62
2022/05/02 06:45:21;;;;;;;37.25;24.98;;;;;;;8.85;79.67;101958.44;5115224;28;20401;-61
2022/05/02 06:47:49;;;;;;;;;;;;;;;9.00;79.65;101958.59;5115779;28;20023;-61
2022/05/02 06:50:20;;;;;;;34.55;25.63;;;;;;;9.32;78.43;101958.06;5115330;28;19923;-62
2022/05/02 06:52:55;;;;;;;38.83;24.90;;;;;;;9.37;77.50;101952.00;5115201;28;20089;-61
2022/05/02 06:55:25;;;;;;;34.10;23.65;;;;;;;10.14;75.15;101950.88;5115041;28;20437;-63
2022/05/02 06:58:02;;;;;;;29.20;22.23;;;;;;;11.55;71.05;101947.00;5097081;28;20040;-63
2022/05/02 07:00:37;;;;;;;30.67;22.65;;;;;;;11.59;69.30;101951.38;5115191;28;20058;-63
2022/05/02 07:03:23;;;;;;;28.73;21.45;;;;;;;11.34;71.69;101946.09;5115237;28;20050;-63
2022/05/02 07:06:20;;;;;;;31.48;21.25;;;;;;;11.11;71.27;101948.66;5114963;28;20065;-62
2022/05/02 07:08:56;;;;;;;26.95;20.30;;;;;;;10.78;71.39;101949.47;5115110;28;20028;-62
2022/05/02 07:11:28;;;;;;;25.77;19.30;;;;;;;10.69;69.43;101951.19;5114986;28;20028;-62
2022/05/02 07:14:10;;;;;;;30.55;20.58;;;;;;;10.58;71.24;101948.50;5114935;28;20032;-63
2022/05/02 07:16:44;;;;;;;29.85;20.58;;;;;;;10.55;71.60;101948.50;5114933;28;20036;-62
2022/05/02 07:19:52;;;;;;;26.77;19.98;;;;;;;10.57;72.02;101946.75;5115000;28;20043;-63
2022/05/02 07:22:48;;;;;;;28.05;19.50;;;;;;;10.51;71.54;101923.19;5012233;28;20045;-63
2022/05/02 07:25:14;;;;;;;23.52;18.65;;;;;;;10.65;70.43;101947.66;5010989;28;20054;-63
2022/05/02 07:28:17;;;;;;;23.92;18.60;;;;;;;10.68;70.33;101944.19;5084811;28;20123;-63
2022/05/02 07:30:42;;;;;;;;;;;;;;;10.73;70.89;101942.47;5115152;28;20032;-63
2022/05/02 07:33:08;;;;;;;24.25;18.02;;;;;;;10.86;68.97;101948.63;5114669;28;19939;-63
2022/05/02 07:35:35;;;;;;;25.80;17.83;;;;;;;10.95;67.96;101949.50;5114894;28;20103;-64
2022/05/02 07:38:01;;;;;;;24.88;18.50;;;;;;;11.05;68.03;101945.19;5116862;28;20035;-63
2022/05/02 07:40:30;;;;;;;23.40;17.80;;;;;;;11.11;66.67;101939.94;5118483;28;20059;-64
2022/05/02 07:42:56;;;;;;;24.40;18.67;;;;;;;11.25;67.04;101946.09;5118584;28;20118;-63
2022/05/02 07:45:27;;;;;;;22.92;16.98;;;;;;;11.29;67.30;101939.97;5118194;28;20035;-65
2022/05/02 07:47:54;;;;;;;22.30;15.82;;;;;;;11.32;66.14;101944.34;5118376;28;20032;-63
2022/05/02 07:50:21;;;;;;;24.13;16.55;;;;;;;11.34;65.92;101937.38;5118281;28;20023;-62
2022/05/02 07:52:47;;;;;;;25.48;16.63;;;;;;;11.48;64.63;101948.72;5114866;28;20506;-62
2022/05/02 07:55:14;;;;;;;21.42;15.50;;;;;;;11.46;64.68;101950.47;5118348;28;20055;-62
2022/05/02 07:57:41;;;;;;;24.75;16.65;;;;;;;11.49;63.71;101940.00;5118176;28;20074;-62
2022/05/02 08:00:10;;;;;;;22.45;15.48;;;;;;;11.47;63.02;101946.97;5118091;28;20042;-62
2022/05/02 08:02:35;;;;;;;21.05;14.85;;;;;;;11.46;63.15;101943.47;5117992;28;20031;-62
2022/05/02 08:05:01;;;;;;;21.38;15.90;;;;;;;11.52;62.46;101943.50;5117621;28;20123;-62
2022/05/02 08:07:32;;;;;;;20.45;14.88;;;;;;;11.65;62.83;101938.25;5117972;28;20031;-63
2022/05/02 08:10:22;;;;;;;20.52;15.35;;;;;;;11.76;62.96;101944.41;5118042;28;20038;-62
2022/05/02 08:13:14;;;;;;;20.88;14.88;;;;;;;11.81;61.87;101940.00;5117726;28;20030;-62
2022/05/02 08:15:59;;;;;;;23.52;14.05;;;;;;;11.95;62.28;101935.63;5118211;28;20032;-62
2022/05/02 08:18:29;;;;;;;18.08;12.07;;;;;;;12.00;58.72;101928.63;5117643;28;20427;-62
2022/05/02 08:21:00;;;;;;;18.83;14.43;;;;;;;11.96;59.22;101934.75;5117555;28;20096;-63
2022/05/02 08:29:51;;;;;;;18.27;13.70;;;;;;;12.18;59.82;101936.44;5117723;28;20062;-63
2022/05/02 08:32:32;;;;;;;19.55;13.40;;;;;;;12.31;58.23;101937.28;5117715;28;20062;-62
2022/05/02 08:35:16;;;;;;;20.75;14.30;;;;;;;12.38;59.18;101939.03;5117335;28;20028;-63
2022/05/02 08:37:58;;;;;;;21.10;14.32;;;;;;;12.40;58.07;101939.03;5117534;28;20049;-63
2022/05/02 08:40:27;;;;;;;20.77;13.95;;;;;;;12.43;58.72;101941.63;5117063;28;20435;-63
2022/05/02 08:43:24;;;;;;;21.60;13.52;;;;;;;12.58;58.06;101931.06;5117338;28;20040;-63
2022/05/02 08:45:58;;;;;;;18.70;13.40;;;;;;;12.84;57.21;101938.81;5117130;28;20027;-63
2022/05/02 08:49:36;;;;;;;17.45;13.20;;;;;;;12.97;56.37;101930.00;5117003;28;20031;-62
2022/05/02 08:52:28;;;;;;;18.40;12.60;;;;;;;13.01;55.84;101926.44;5087655;28;20162;-63
2022/05/02 08:55:20;;;;;;;15.48;11.38;;;;;;;13.10;55.02;101930.78;5116927;28;20023;-63
2022/05/02 08:58:00;;;;;;;16.85;11.68;;;;;;;13.23;54.57;101927.22;5117148;28;20080;-63
2022/05/02 09:00:47;;;;;;;17.73;12.32;;;;;;;14.43;52.59;101918.22;5116795;28;20342;-63
2022/05/02 09:03:33;;;;;;;16.40;11.88;;;;;;;16.39;49.64;101918.59;5116997;28;20464;-62
2022/05/02 09:06:28;;;;;;;15.77;11.50;;;;;;;17.57;43.57;101896.50;5116910;28;20085;-63
2022/05/02 09:09:14;;;;;;;13.25;10.77;;;;;;;17.78;42.18;101911.00;5116837;28;20028;-63
2022/05/02 09:12:10;;;;;;;14.75;11.13;;;;;;;16.93;43.28;101909.50;5116675;28;20036;-63
2022/05/02 09:15:13;;;;;;;15.98;10.98;;;;;;;16.74;45.14;101908.19;5116698;28;20461;-63
2022/05/02 09:18:20;;;;;;;15.88;10.32;;;;;;;16.29;45.74;101908.19;5116655;28;20338;-63
2022/05/02 09:21:32;;;;;;;13.00;9.52;;;;;;;15.97;45.99;101910.59;5116808;28;20028;-63
2022/05/02 09:24:22;;;;;;;15.60;10.80;;;;;;;15.74;46.28;101913.66;5014070;28;20554;-62
2022/05/02 09:27:05;;;;;;;15.60;11.25;;;;;;;15.62;44.46;101896.25;5115913;28;20486;-63
2022/05/02 09:29:45;;;;;;;16.83;10.80;;;;;;;15.69;45.03;101907.59;5116237;28;20032;-63
2022/05/02 09:32:17;;;;;;;14.90;10.52;;;;;;;15.57;45.15;101907.81;5116573;28;20042;-62
2022/05/02 09:34:53;;;;;;;14.57;10.70;;;;;;;15.54;44.97;101903.41;5116125;28;20031;-63
2022/05/02 09:37:37;;;;;;;14.35;10.45;;;;;;;15.68;46.05;101894.41;5116539;28;20032;-63
2022/05/02 09:40:14;;;;;;;15.30;11.57;;;;;;;15.84;44.92;101909.06;5116143;28;20027;-64
2022/05/02 09:43:05;;;;;;;16.35;11.15;;;;;;;15.91;45.04;101901.03;5116317;28;20095;-63
2022/05/02 09:51:49;;;;;;;14.32;10.52;;;;;;;16.20;44.85;101894.31;5116002;28;20036;-63
2022/05/02 09:57:31;;;;;;;12.70;11.00;;;;;;;16.43;42.60;101889.44;5115604;28;20074;-63
2022/05/02 10:02:48;;;;;;;13.98;10.57;;;;;;;16.70;42.51;101888.00;5116114;28;20128;-63
2022/05/02 10:05:25;;;;;;;15.93;10.10;;;;;;;16.74;42.08;101875.59;5115871;28;20106;-64
2022/05/02 10:08:16;;;;;;;14.50;10.13;;;;;;;16.78;41.45;101885.19;5115413;28;20118;-63
2022/05/02 10:10:56;;;;;;;13.45;10.52;;;;;;;16.75;41.41;101885.25;5115666;28;20434;-64
2022/05/02 10:13:37;;;;;;;15.23;10.15;;;;;;;16.71;41.20;101884.44;5115576;28;20084;-63
2022/05/02 10:16:14;;;;;;;13.00;9.80;;;;;;;16.87;41.31;101879.69;5115361;28;20474;-64
2022/05/02 10:19:10;;;;;;;14.25;9.82;;;;;;;16.86;40.64;101885.88;5115937;28;20031;-63
2022/05/02 10:21:53;;;;;;;11.95;9.55;;;;;;;16.80;40.49;101886.00;5115578;28;20035;-63
2022/05/02 10:24:47;;;;;;;12.95;9.25;;;;;;;16.98;41.56;101880.28;5115360;28;20028;-63
2022/05/02 10:27:38;;;;;;;13.43;10.25;;;;;;;17.06;39.92;101878.34;5115333;28;20048;-62
2022/05/02 10:30:12;;;;;;;15.85;10.25;;;;;;;16.85;39.91;101879.72;5115371;28;20077;-64
2022/05/02 10:32:50;;;;;;;15.18;10.50;;;;;;;16.70;40.04;101872.13;5115686;28;20020;-63
2022/05/02 10:35:18;;;;;;;12.65;9.93;;;;;;;16.79;40.15;101876.38;5115200;28;20037;-63
2022/05/02 10:38:04;;;;;;;14.85;9.57;;;;;;;16.84;40.92;101871.81;5115315;28;20035;-63
2022/05/02 10:40:39;;;;;;;14.18;10.68;;;;;;;16.98;40.70;101870.59;5115017;28;20028;-64
2022/05/02 10:43:07;;;;;;;12.43;9.40;;;;;;;17.17;39.75;101864.84;5115411;28;20070;-60
2022/05/02 10:45:36;;;;;;;13.23;10.27;;;;;;;17.24;40.09;101853.22;5115444;28;20059;-64
2022/05/02 10:48:31;;;;;;;11.18;9.95;;;;;;;17.29;39.86;101859.28;5115230;28;20304;-63
2022/05/02 10:51:12;;;;;;;13.90;10.05;;;;;;;17.31;39.70;101846.91;5115092;28;20055;-64
2022/05/02 10:53:57;;;;;;;12.13;9.55;;;;;;;17.25;39.90;101855.84;5115623;28;20035;-64
2022/05/02 10:56:33;;;;;;;13.65;9.98;;;;;;;17.12;38.98;101846.47;5115355;28;20081;-63
2022/05/02 10:59:02;;;;;;;13.63;10.10;;;;;;;17.03;38.63;101851.97;5115317;28;20070;-63
2022/05/02 11:02:24;;;;;;;12.90;9.98;;;;;;;17.27;40.12;101847.88;5115073;28;20023;-63
2022/05/02 11:05:09;;;;;;;11.25;9.48;;;;;;;17.32;40.95;101844.19;5009338;28;20073;-64
2022/05/02 11:07:50;;;;;;;10.98;8.73;;;;;;;17.62;39.96;101839.03;5012630;28;20036;-64
2022/05/02 11:10:19;;;;;;;12.63;9.65;;;;;;;17.74;39.05;101847.53;5084186;28;20043;-63
2022/05/02 11:13:20;;;;;;;12.90;10.25;;;;;;;17.84;39.23;101834.03;5116633;28;20050;-64
2022/05/02 11:15:58;;;;;;;12.75;9.43;;;;;;;17.80;38.76;101827.09;5118892;28;20035;-64
2022/05/02 11:21:29;;;;;;;13.90;10.02;;;;;;;17.67;37.75;101834.47;5119048;28;20081;-63
2022/05/02 11:24:26;;;;;;;12.50;9.13;;;;;;;17.78;38.60;101835.09;5118967;28;20036;-62
2022/05/02 11:26:58;;;;;;;10.52;9.38;;;;;;;17.66;37.00;101827.47;5118787;28;20075;-62
2022/05/02 11:29:48;;;;;;;13.10;9.68;;;;;;;17.52;37.61;101830.44;5118588;28;20078;-63
2022/05/02 11:32:34;;;;;;;11.98;9.70;;;;;;;17.39;38.32;101824.59;5118632;28;20028;-63
2022/05/02 11:35:16;;;;;;;12.52;9.93;;;;;;;17.47;37.79;101815.63;5100469;28;20429;-63
2022/05/02 11:38:05;;;;;;;13.82;8.98;;;;;;;17.77;39.11;101813.94;5118567;28;20055;-63
2022/05/02 11:40:35;;;;;;;11.93;9.07;;;;;;;18.03;37.87;101812.28;5118772;28;20027;-63
2022/05/02 11:43:03;;;;;;;11.60;9.45;;;;;;;18.12;36.85;101813.81;5116075;28;20427;-63
2022/05/02 11:46:14;;;;;;;15.75;11.02;;;;;;;18.01;38.06;101811.44;5117859;28;20024;-63
2022/05/02 11:48:45;;;;;;;10.65;9.55;;;;;;;18.14;37.32;101811.13;5118023;28;20430;-62
2022/05/02 11:51:24;;;;;;;13.93;10.73;;;;;;;18.08;37.11;101810.38;5118594;28;20066;-62
2022/05/02 11:53:54;;;;;;;12.13;10.77;;;;;;;17.87;37.08;101818.06;5118004;28;20272;-63
2022/05/02 11:56:25;;;;;;;13.13;10.63;;;;;;;17.96;37.00;101809.88;5118314;28;20111;-62
2022/05/02 11:59:03;;;;;;;11.65;9.52;;;;;;;18.20;37.19;101805.63;5118502;28;20078;-63
2022/05/02 12:01:37;;;;;;;14.65;9.70;;;;;;;18.21;36.74;101802.94;5114515;28;20039;-63
2022/05/02 12:04:03;;;;;;;11.07;9.65;;;;;;;18.17;36.88;101803.09;5099707;28;20430;-63
2022/05/02 12:06:36;;;;;;;13.88;9.93;;;;;;;18.27;36.55;101794.81;5097306;28;20107;-62
2022/05/02 12:09:07;;;;;;;13.65;10.13;;;;;;;18.38;36.32;101803.28;5097383;28;20032;-62
2022/05/02 12:11:51;;;;;;;14.07;10.20;;;;;;;18.41;37.40;101797.91;5097382;28;20035;-62
2022/05/02 12:14:21;;;;;;;13.02;10.48;;;;;;;18.30;36.19;101802.66;5097330;28;20063;-64
2022/05/02 12:17:06;;;;;;;11.63;10.40;;;;;;;18.28;37.41;101793.03;5097160;28;20471;-62